Time;durP1;ratioP1;P1;durP2;ratioP2;P2;SDS_P1;SDS_P2;PMS_P1;PMS_P2;Temp;Humidity;BMP_temperature;BMP_pressure;BME280_temperature;BME280_humidity;BME280_pressure;Samples;Min_cycle;Max_cycle;Signal;HPM_P1;HPM_P2
2024/03/23 00:01:13;;;;;;;;;;;;;;;19.40;39.85;98279.61;67796;1279;1016464;-62
2024/03/23 00:04:18;;;;;;;;;;;;;;;19.57;39.80;98275.48;67831;1279;1016389;-62
2024/03/23 00:07:24;;;;;;;;;;;;;;;19.60;39.94;98273.23;67775;1279;1016276;-62
2024/03/23 00:10:31;;;;;;;;;;;;;;;19.54;39.93;98267.43;67674;1279;1015649;-63
2024/03/23 00:13:36;;;;;;;;;;;;;;;19.72;39.69;98264.83;67822;1279;1016042;-63
2024/03/23 00:16:40;;;;;;;;;;;;;;;19.88;39.54;98259.20;67755;1279;1016562;-62
2024/03/23 00:19:44;;;;;;;;;;;;;;;19.82;39.28;98247.84;67813;1279;1016098;-63
2024/03/23 00:22:49;;;;;;;;;;;;;;;19.90;39.33;98240.61;67785;1279;1018752;-62
2024/03/23 00:25:56;;;;;;;;;;;;;;;19.89;39.33;98234.73;67761;1279;1016468;-63
2024/03/23 00:29:01;;;;;;;;;;;;;;;19.94;39.36;98229.69;67772;1279;1016471;-62
2024/03/23 00:32:06;;;;;;;;;;;;;;;19.88;39.48;98224.80;67823;1279;1016347;-63
2024/03/23 00:35:10;;;;;;;;;;;;;;;20.13;39.31;98218.17;67702;1279;1016225;-68
2024/03/23 00:38:15;;;;;;;;;;;;;;;20.25;39.13;98214.55;67750;1279;1016308;-68
2024/03/23 00:41:20;;;;;;;;;;;;;;;20.24;39.16;98217.89;67772;1279;1016409;-63
2024/03/23 00:44:25;;;;;;;;;;;;;;;20.34;39.05;98211.61;67853;1279;1016497;-63
2024/03/23 00:47:29;;;;;;;;;;;;;;;20.31;39.00;98212.30;67793;1279;1015856;-62
2024/03/23 00:50:35;;;;;;;;;;;;;;;20.24;39.17;98220.19;67832;1279;1016253;-64
2024/03/23 00:53:40;;;;;;;;;;;;;;;20.29;39.19;98221.44;67700;1279;1016256;-62
2024/03/23 00:56:46;;;;;;;;;;;;;;;20.25;39.29;98218.24;67798;1279;1016366;-62
2024/03/23 00:59:49;;;;;;;;;;;;;;;20.14;39.32;98219.44;67803;1279;1016505;-65
2024/03/23 01:02:52;;;;;;;;;;;;;;;20.14;39.39;98215.71;67701;1279;1017095;-62
2024/03/23 01:05:57;;;;;;;;;;;;;;;20.04;39.57;98213.52;67791;1279;1016371;-68
2024/03/23 01:09:03;;;;;;;;;;;;;;;20.03;39.64;98210.73;67750;1279;1015987;-62
2024/03/23 01:12:08;;;;;;;;;;;;;;;19.85;40.01;98208.27;67814;1279;1017201;-63
2024/03/23 01:15:12;;;;;;;;;;;;;;;19.76;40.25;98203.44;67814;1279;1016465;-68
2024/03/23 01:18:17;;;;;;;;;;;;;;;19.75;40.38;98198.70;67790;1279;1016416;-68
2024/03/23 01:21:21;;;;;;;;;;;;;;;19.62;40.64;98201.54;67740;1279;1016363;-63
2024/03/23 01:24:24;;;;;;;;;;;;;;;19.69;40.61;98200.40;67731;1279;1016341;-62
2024/03/23 01:27:29;;;;;;;;;;;;;;;19.54;41.00;98201.11;67804;1279;1016548;-63
2024/03/23 01:30:33;;;;;;;;;;;;;;;19.33;41.60;98197.83;67797;1279;1016461;-63
2024/03/23 01:33:38;;;;;;;;;;;;;;;19.26;41.87;98193.88;67784;1279;1016060;-63
2024/03/23 01:36:42;;;;;;;;;;;;;;;19.23;42.14;98190.48;67816;1279;1016457;-62
2024/03/23 01:39:47;;;;;;;;;;;;;;;19.28;42.21;98184.10;67833;1279;1016315;-69
2024/03/23 01:42:52;;;;;;;;;;;;;;;19.35;42.10;98186.48;67761;1279;1016323;-62
2024/03/23 01:45:54;;;;;;;;;;;;;;;19.45;41.91;98181.55;67818;1279;1016270;-63
2024/03/23 01:48:59;;;;;;;;;;;;;;;19.46;42.21;98180.36;67764;1279;1016326;-63
2024/03/23 01:52:04;;;;;;;;;;;;;;;19.56;42.03;98177.11;67838;1279;1016466;-63
2024/03/23 01:55:09;;;;;;;;;;;;;;;19.54;42.29;98175.07;67767;1279;1016947;-63
2024/03/23 01:58:14;;;;;;;;;;;;;;;19.55;42.22;98171.58;67752;1279;1016531;-68
2024/03/23 02:01:21;;;;;;;;;;;;;;;19.57;42.23;98169.42;67829;1279;1016356;-62
2024/03/23 02:04:26;;;;;;;;;;;;;;;19.67;42.16;98162.30;67827;1279;1016751;-62
2024/03/23 02:07:30;;;;;;;;;;;;;;;19.90;41.85;98162.66;67843;1279;1016471;-61
2024/03/23 02:10:35;;;;;;;;;;;;;;;20.52;40.74;98154.78;67811;1279;1016290;-61
2024/03/23 02:13:39;;;;;;;;;;;;;;;20.51;40.78;98156.04;67781;1279;1018941;-61
2024/03/23 02:16:44;;;;;;;;;;;;;;;20.48;40.91;98153.89;67831;1279;1016462;-61
2024/03/23 02:19:48;;;;;;;;;;;;;;;20.25;41.26;98157.08;67800;1279;1017691;-61
2024/03/23 02:22:54;;;;;;;;;;;;;;;20.30;41.33;98158.39;67778;1279;1016562;-61
2024/03/23 02:25:58;;;;;;;;;;;;;;;20.26;41.18;98158.00;67823;1279;1016488;-61
2024/03/23 02:29:04;;;;;;;;;;;;;;;19.73;42.08;98157.17;67798;1279;1018649;-61
2024/03/23 02:32:09;;;;;;;;;;;;;;;19.80;41.95;98151.20;67827;1279;1016291;-61
2024/03/23 02:35:13;;;;;;;;;;;;;;;19.60;42.39;98146.54;67799;1279;1016157;-61
2024/03/23 02:38:18;;;;;;;;;;;;;;;19.53;42.41;98137.20;67775;1279;1016449;-62
2024/03/23 02:41:23;;;;;;;;;;;;;;;19.56;42.37;98135.27;67818;1279;1016488;-61
2024/03/23 02:44:30;;;;;;;;;;;;;;;19.59;42.34;98132.35;67758;1279;1016624;-65
2024/03/23 02:47:36;;;;;;;;;;;;;;;19.58;42.38;98130.64;67758;1279;1016307;-61
2024/03/23 02:50:40;;;;;;;;;;;;;;;19.49;42.74;98128.10;67803;1279;1017511;-61
2024/03/23 02:53:46;;;;;;;;;;;;;;;19.29;43.10;98127.08;67781;1279;1016148;-61
2024/03/23 02:56:51;;;;;;;;;;;;;;;19.57;42.72;98121.71;67763;1279;1016205;-61
2024/03/23 02:59:55;;;;;;;;;;;;;;;19.60;42.82;98115.23;67760;1279;1016393;-61
2024/03/23 03:02:59;;;;;;;;;;;;;;;19.57;42.93;98115.33;67794;1279;1016311;-61
2024/03/23 03:06:04;;;;;;;;;;;;;;;19.43;43.08;98114.05;67795;1279;1016526;-61
2024/03/23 03:09:08;;;;;;;;;;;;;;;19.35;43.24;98108.36;67818;1279;1016567;-61
2024/03/23 03:12:13;;;;;;;;;;;;;;;19.30;43.31;98101.46;67792;1279;1016052;-61
2024/03/23 03:15:17;;;;;;;;;;;;;;;19.46;43.17;98100.24;67776;1279;1016427;-61
2024/03/23 03:18:20;;;;;;;;;;;;;;;19.41;43.12;98090.72;67723;1279;1016314;-61
2024/03/23 03:21:23;;;;;;;;;;;;;;;19.42;43.23;98089.38;67768;1279;1016204;-62
2024/03/23 03:24:28;;;;;;;;;;;;;;;19.50;43.14;98085.75;67746;1279;1016213;-64
2024/03/23 03:27:33;;;;;;;;;;;;;;;19.52;43.17;98079.57;67767;1279;1016444;-61
2024/03/23 03:30:38;;;;;;;;;;;;;;;19.45;43.35;98081.40;67781;1279;1018658;-61
2024/03/23 03:33:44;;;;;;;;;;;;;;;19.59;43.25;98077.75;67781;1279;1016499;-61
2024/03/23 03:36:49;;;;;;;;;;;;;;;19.47;43.54;98076.67;67793;1279;1016353;-61
2024/03/23 03:39:51;;;;;;;;;;;;;;;19.67;43.31;98071.72;67776;1279;1015932;-61
2024/03/23 03:42:56;;;;;;;;;;;;;;;19.85;43.11;98070.44;67792;1279;1016502;-61
2024/03/23 03:46:01;;;;;;;;;;;;;;;19.87;43.01;98064.04;67814;1279;1016397;-61
2024/03/23 03:49:06;;;;;;;;;;;;;;;19.95;43.13;98059.35;67790;1279;1019290;-61
2024/03/23 03:52:12;;;;;;;;;;;;;;;20.04;42.87;98056.80;67790;1279;1016488;-61
2024/03/23 03:55:17;;;;;;;;;;;;;;;19.87;43.24;98056.73;67684;1279;1015677;-62
2024/03/23 03:58:21;;;;;;;;;;;;;;;20.03;43.05;98053.04;67762;1279;1016494;-62
2024/03/23 04:01:24;;;;;;;;;;;;;;;20.04;42.99;98052.38;67741;1279;1016462;-61
2024/03/23 04:04:29;;;;;;;;;;;;;;;20.10;42.87;98050.23;67824;1279;1015983;-61
2024/03/23 04:07:34;;;;;;;;;;;;;;;20.19;42.91;98048.91;67796;1279;1016524;-62
2024/03/23 04:10:40;;;;;;;;;;;;;;;20.02;43.26;98046.18;67661;1279;1016465;-61
2024/03/23 04:13:44;;;;;;;;;;;;;;;20.16;42.98;98043.20;67720;1279;1016593;-61
2024/03/23 04:16:50;;;;;;;;;;;;;;;20.14;42.99;98040.27;67837;1279;1016816;-61
2024/03/23 04:19:56;;;;;;;;;;;;;;;20.37;42.47;98039.59;67781;1279;1016068;-61
2024/03/23 04:22:59;;;;;;;;;;;;;;;20.27;42.70;98036.66;67781;1279;1016913;-60
2024/03/23 04:26:05;;;;;;;;;;;;;;;19.93;43.32;98038.37;67686;1279;1016246;-61
2024/03/23 04:29:10;;;;;;;;;;;;;;;19.85;43.53;98037.64;67817;1279;1016499;-61
2024/03/23 04:32:14;;;;;;;;;;;;;;;20.16;42.95;98038.28;67792;1279;1016449;-61
2024/03/23 04:35:19;;;;;;;;;;;;;;;19.74;43.59;98037.75;67778;1279;1017333;-61
2024/03/23 04:38:24;;;;;;;;;;;;;;;19.89;43.36;98028.08;67772;1279;1016420;-61
2024/03/23 04:41:29;;;;;;;;;;;;;;;19.57;44.20;98025.63;67690;1279;1016165;-61
2024/03/23 04:44:34;;;;;;;;;;;;;;;19.64;44.22;98019.38;67747;1279;1020290;-61
2024/03/23 04:47:40;;;;;;;;;;;;;;;19.71;43.96;98012.92;67833;1279;1019645;-61
2024/03/23 04:50:44;;;;;;;;;;;;;;;19.59;44.15;98009.80;67812;1279;1016469;-61
2024/03/23 04:53:49;;;;;;;;;;;;;;;19.63;44.05;98002.77;67777;1279;1016447;-67
2024/03/23 04:56:54;;;;;;;;;;;;;;;19.55;44.38;97997.42;67828;1279;1015711;-62
2024/03/23 05:00:01;;;;;;;;;;;;;;;19.88;43.81;97996.66;67786;1279;1016292;-61
2024/03/23 05:03:06;;;;;;;;;;;;;;;19.93;43.70;97987.09;67755;1279;1016224;-61
2024/03/23 05:06:12;;;;;;;;;;;;;;;20.02;43.48;97989.07;67681;1279;1016600;-65
2024/03/23 05:09:17;;;;;;;;;;;;;;;19.92;43.76;97982.94;67702;1279;1016382;-63
2024/03/23 05:12:21;;;;;;;;;;;;;;;19.97;43.81;97981.11;67702;1279;1016541;-61
2024/03/23 05:15:27;;;;;;;;;;;;;;;20.05;43.78;97980.51;67847;1279;1016269;-64
2024/03/23 05:18:32;;;;;;;;;;;;;;;20.13;43.64;97982.48;67740;1279;1018813;-62
2024/03/23 05:21:37;;;;;;;;;;;;;;;20.06;43.96;97983.05;67795;1279;1016279;-61
2024/03/23 05:24:42;;;;;;;;;;;;;;;20.10;43.91;97982.91;67831;1279;1017801;-61
2024/03/23 05:27:48;;;;;;;;;;;;;;;20.07;43.92;97978.20;67794;1279;1016451;-61
2024/03/23 05:30:53;;;;;;;;;;;;;;;20.00;44.02;97978.45;67761;1279;1016423;-61
2024/03/23 05:33:58;;;;;;;;;;;;;;;20.03;43.92;97973.36;67770;1279;1016504;-67
2024/03/23 05:37:03;;;;;;;;;;;;;;;19.91;44.25;97973.62;67797;1279;1016272;-61
2024/03/23 05:40:10;;;;;;;;;;;;;;;19.90;44.06;97968.94;67829;1279;1016759;-61
2024/03/23 05:43:16;;;;;;;;;;;;;;;19.70;44.43;97962.14;67807;1279;1016518;-61
2024/03/23 05:46:20;;;;;;;;;;;;;;;19.93;44.20;97957.55;67800;1279;1016418;-61
2024/03/23 05:49:25;;;;;;;;;;;;;;;20.04;43.94;97956.77;67765;1279;1018699;-66
2024/03/23 05:52:31;;;;;;;;;;;;;;;19.97;44.16;97953.73;67738;1279;1016370;-61
2024/03/23 05:55:35;;;;;;;;;;;;;;;19.91;44.38;97949.80;67866;1279;1016504;-61
2024/03/23 05:58:40;;;;;;;;;;;;;;;20.04;44.28;97952.09;67785;1279;1016727;-61
2024/03/23 06:01:44;;;;;;;;;;;;;;;19.84;44.71;97952.94;65159;1279;6527832;-61
2024/03/23 06:04:49;;;;;;;;;;;;;;;19.79;44.79;97949.74;67812;1279;1016292;-68
2024/03/23 06:07:54;;;;;;;;;;;;;;;19.70;45.17;97946.69;67795;1279;1016307;-68
2024/03/23 06:10:59;;;;;;;;;;;;;;;19.85;44.98;97946.58;67769;1279;1015881;-61
2024/03/23 06:14:04;;;;;;;;;;;;;;;19.86;44.76;97950.06;67720;1279;1016246;-61
2024/03/23 06:17:08;;;;;;;;;;;;;;;19.93;44.73;97948.03;67774;1279;1016494;-67
2024/03/23 06:20:13;;;;;;;;;;;;;;;19.88;44.86;97942.87;67812;1279;1017036;-61
2024/03/23 06:23:20;;;;;;;;;;;;;;;20.16;44.43;97935.74;67794;1279;1016426;-61
2024/03/23 06:26:25;;;;;;;;;;;;;;;20.33;44.26;97930.92;67766;1279;1016317;-61
2024/03/23 06:29:32;;;;;;;;;;;;;;;20.40;44.04;97926.29;67810;1279;1016467;-67
2024/03/23 06:32:37;;;;;;;;;;;;;;;20.44;43.83;97926.45;67804;1279;1016234;-62
2024/03/23 06:35:42;;;;;;;;;;;;;;;20.18;44.52;97923.23;67743;1279;1015779;-61
2024/03/23 06:38:46;;;;;;;;;;;;;;;20.04;44.82;97926.30;67830;1279;1016411;-61
2024/03/23 06:41:51;;;;;;;;;;;;;;;19.93;44.90;97924.61;67818;1279;1016479;-62
2024/03/23 06:44:57;;;;;;;;;;;;;;;19.95;44.95;97923.64;67787;1279;1016217;-67
2024/03/23 06:48:02;;;;;;;;;;;;;;;19.74;45.28;97916.02;67816;1279;1016514;-61
2024/03/23 06:51:09;;;;;;;;;;;;;;;19.68;45.49;97911.65;67822;1279;1016181;-67
2024/03/23 06:54:12;;;;;;;;;;;;;;;19.68;45.19;97909.48;67799;1279;1016360;-61
2024/03/23 06:57:17;;;;;;;;;;;;;;;19.81;45.11;97907.64;67678;1279;1016402;-65
2024/03/23 07:00:21;;;;;;;;;;;;;;;19.83;44.97;97901.99;67774;1279;1018889;-68
2024/03/23 07:03:26;;;;;;;;;;;;;;;19.83;45.21;97890.41;67788;1279;1018897;-62
2024/03/23 07:06:31;;;;;;;;;;;;;;;19.75;45.25;97883.30;67739;1279;1015969;-67
2024/03/23 07:09:37;;;;;;;;;;;;;;;19.74;45.23;97879.71;67799;1279;1016412;-61
2024/03/23 07:12:43;;;;;;;;;;;;;;;19.85;45.31;97877.98;67816;1279;1016506;-61
2024/03/23 07:15:48;;;;;;;;;;;;;;;19.85;45.36;97874.02;67719;1279;1016396;-61
2024/03/23 07:18:53;;;;;;;;;;;;;;;20.06;45.19;97869.54;67836;1279;1016442;-61
2024/03/23 07:21:56;;;;;;;;;;;;;;;20.04;45.36;97869.23;67805;1279;1016296;-61
2024/03/23 07:25:00;;;;;;;;;;;;;;;20.27;44.90;97863.89;67817;1279;1016495;-62
2024/03/23 07:28:04;;;;;;;;;;;;;;;20.22;44.71;97856.66;67852;1279;1017282;-61
2024/03/23 07:31:10;;;;;;;;;;;;;;;20.36;44.72;97850.48;67773;1279;1016334;-67
2024/03/23 07:34:14;;;;;;;;;;;;;;;20.72;44.43;97846.08;67837;1279;1016547;-66
2024/03/23 07:37:19;;;;;;;;;;;;;;;20.86;44.11;97850.16;67769;1279;1015907;-62
2024/03/23 07:40:24;;;;;;;;;;;;;;;20.95;44.14;97862.05;67806;1279;1016182;-62
2024/03/23 07:43:26;;;;;;;;;;;;;;;21.11;43.79;97855.71;67812;1279;1016489;-61
2024/03/23 07:46:31;;;;;;;;;;;;;;;21.30;43.77;97848.28;67804;1279;1016263;-67
2024/03/23 07:49:37;;;;;;;;;;;;;;;21.39;43.72;97845.59;67830;1279;1016496;-62
2024/03/23 07:52:41;;;;;;;;;;;;;;;21.52;43.47;97843.13;67760;1279;1016007;-62
2024/03/23 07:55:47;;;;;;;;;;;;;;;21.44;43.82;97844.64;67804;1279;1018318;-62
2024/03/23 07:58:55;;;;;;;;;;;;;;;21.73;43.25;97842.89;67786;1279;1016197;-62
2024/03/23 08:01:59;;;;;;;;;;;;;;;21.73;43.45;97838.78;67809;1279;1016387;-61
2024/03/23 08:05:03;;;;;;;;;;;;;;;21.93;43.31;97834.44;67757;1279;1016328;-62
2024/03/23 08:08:08;;;;;;;;;;;;;;;22.30;43.12;97829.23;67813;1279;1016412;-65
2024/03/23 08:11:13;;;;;;;;;;;;;;;22.70;42.71;97820.63;67803;1279;1016567;-65
2024/03/23 08:14:17;;;;;;;;;;;;;;;23.00;42.22;97810.52;67803;1279;1016856;-62
2024/03/23 08:17:22;;;;;;;;;;;;;;;23.19;41.98;97809.46;67806;1279;1016727;-62
2024/03/23 08:20:28;;;;;;;;;;;;;;;23.36;41.23;97804.04;67735;1279;1016516;-66
2024/03/23 08:23:33;;;;;;;;;;;;;;;23.33;40.96;97801.18;67785;1279;1016025;-62
2024/03/23 08:26:39;;;;;;;;;;;;;;;23.21;40.90;97796.77;67760;1279;1016741;-62
2024/03/23 08:29:44;;;;;;;;;;;;;;;23.18;41.36;97792.09;67839;1279;1016480;-62
2024/03/23 08:32:49;;;;;;;;;;;;;;;23.24;41.42;97785.10;67772;1279;1016304;-66
2024/03/23 08:35:53;;;;;;;;;;;;;;;23.72;41.20;97781.23;67788;1279;1016266;-63
2024/03/23 08:38:58;;;;;;;;;;;;;;;24.06;40.63;97770.30;67845;1279;1016524;-66
2024/03/23 08:42:02;;;;;;;;;;;;;;;24.14;40.31;97761.68;67802;1279;1016443;-62
2024/03/23 08:45:09;;;;;;;;;;;;;;;23.96;40.33;97757.60;67727;1279;1016367;-63
2024/03/23 08:48:14;;;;;;;;;;;;;;;24.19;40.00;97745.69;67776;1279;1018385;-66
2024/03/23 08:51:18;;;;;;;;;;;;;;;24.44;39.65;97742.52;67826;1279;1016031;-66
2024/03/23 08:54:23;;;;;;;;;;;;;;;24.47;39.75;97737.27;67707;1279;1016139;-67
2024/03/23 08:57:27;;;;;;;;;;;;;;;24.46;39.32;97733.61;67770;1279;1016605;-67
2024/03/23 09:00:32;;;;;;;;;;;;;;;24.27;39.64;97735.17;67838;1279;1016438;-62
2024/03/23 09:03:36;;;;;;;;;;;;;;;24.33;39.60;97730.50;67780;1279;1016274;-66
2024/03/23 09:06:42;;;;;;;;;;;;;;;24.48;39.58;97725.66;67814;1279;1016294;-66
2024/03/23 09:09:48;;;;;;;;;;;;;;;24.59;39.17;97718.83;67846;1279;1016210;-65
2024/03/23 09:12:54;;;;;;;;;;;;;;;24.68;39.70;97716.92;67815;1279;1016333;-63
2024/03/23 09:16:00;;;;;;;;;;;;;;;24.67;38.84;97704.02;67767;1279;1016621;-67
2024/03/23 09:19:05;;;;;;;;;;;;;;;24.76;38.71;97688.77;67815;1279;1016370;-66
2024/03/23 09:22:10;;;;;;;;;;;;;;;24.86;38.57;97676.98;67799;1279;1015853;-66
2024/03/23 09:25:16;;;;;;;;;;;;;;;24.83;38.40;97667.93;67853;1279;1015754;-64
2024/03/23 09:28:21;;;;;;;;;;;;;;;25.21;38.19;97660.60;67803;1279;1016098;-67
2024/03/23 09:31:26;;;;;;;;;;;;;;;25.33;37.86;97655.76;67781;1279;1016430;-67
2024/03/23 09:34:31;;;;;;;;;;;;;;;25.52;38.15;97647.30;67797;1279;1016206;-67
2024/03/23 09:37:35;;;;;;;;;;;;;;;25.72;37.60;97640.35;67834;1279;1016300;-66
2024/03/23 09:40:39;;;;;;;;;;;;;;;25.84;37.38;97634.72;67769;1279;1016507;-67
2024/03/23 09:43:44;;;;;;;;;;;;;;;26.03;37.40;97631.14;67797;1279;1016407;-63
2024/03/23 09:46:50;;;;;;;;;;;;;;;26.09;37.29;97625.98;67790;1279;1016507;-68
2024/03/23 09:49:54;;;;;;;;;;;;;;;26.19;36.84;97621.46;67791;1279;1016080;-63
2024/03/23 09:52:59;;;;;;;;;;;;;;;26.38;36.18;97621.78;67812;1279;1016472;-67
2024/03/23 09:56:04;;;;;;;;;;;;;;;26.54;36.21;97621.86;67744;1279;1016298;-65
2024/03/23 09:59:06;;;;;;;;;;;;;;;26.88;35.74;97610.92;67831;1279;1016338;-67
2024/03/23 10:02:12;;;;;;;;;;;;;;;27.12;36.04;97604.08;67769;1279;1018027;-68
2024/03/23 10:05:16;;;;;;;;;;;;;;;27.27;35.26;97594.63;67828;1279;1016508;-63
2024/03/23 10:08:21;;;;;;;;;;;;;;;27.35;35.03;97583.48;67843;1279;1016193;-67
2024/03/23 10:11:27;;;;;;;;;;;;;;;27.59;35.60;97576.16;67697;1279;1016015;-66
2024/03/23 10:14:31;;;;;;;;;;;;;;;27.82;35.49;97570.59;67759;1279;1016459;-67
2024/03/23 10:17:37;;;;;;;;;;;;;;;28.19;35.10;97564.52;67790;1279;1016469;-62
2024/03/23 10:20:40;;;;;;;;;;;;;;;28.21;34.43;97558.85;67825;1279;1016502;-66
2024/03/23 10:23:46;;;;;;;;;;;;;;;28.57;34.54;97550.23;67779;1279;1016465;-66
2024/03/23 10:26:51;;;;;;;;;;;;;;;28.60;33.67;97538.02;67801;1279;1016132;-66
2024/03/23 10:29:56;;;;;;;;;;;;;;;28.71;33.87;97531.95;67767;1279;1015755;-65
2024/03/23 10:33:01;;;;;;;;;;;;;;;28.86;33.48;97529.23;67755;1279;1016258;-67
2024/03/23 10:36:05;;;;;;;;;;;;;;;28.98;33.35;97523.02;67829;1279;1018895;-64
2024/03/23 10:39:10;;;;;;;;;;;;;;;29.12;33.10;97520.17;67784;1279;1017255;-67
2024/03/23 10:42:12;;;;;;;;;;;;;;;29.33;33.15;97507.36;67833;1279;1015993;-66
2024/03/23 10:45:17;;;;;;;;;;;;;;;29.38;32.90;97508.13;67824;1279;1016848;-66
2024/03/23 10:48:22;;;;;;;;;;;;;;;29.35;32.81;97499.45;67813;1279;1016288;-67
2024/03/23 10:51:27;;;;;;;;;;;;;;;29.43;32.95;97491.91;67803;1279;1016772;-67
2024/03/23 10:54:32;;;;;;;;;;;;;;;29.07;33.24;97486.09;67792;1279;1016072;-67
2024/03/23 10:57:38;;;;;;;;;;;;;;;29.13;33.31;97479.16;67756;1279;1016417;-65
2024/03/23 11:00:42;;;;;;;;;;;;;;;28.99;32.80;97479.64;67683;1279;1016443;-64
2024/03/23 11:03:45;;;;;;;;;;;;;;;29.00;32.44;97475.27;67829;1279;1016307;-63
2024/03/23 11:06:52;;;;;;;;;;;;;;;29.27;32.77;97472.42;67818;1279;1016528;-66
2024/03/23 11:09:56;;;;;;;;;;;;;;;29.52;31.87;97464.53;67797;1279;1016443;-66
2024/03/23 11:13:01;;;;;;;;;;;;;;;29.76;31.11;97458.20;67819;1279;1016499;-66
2024/03/23 11:16:06;;;;;;;;;;;;;;;29.52;29.97;97454.09;67777;1279;1016520;-63
2024/03/23 11:19:10;;;;;;;;;;;;;;;29.36;28.92;97433.36;67796;1279;1016821;-67
2024/03/23 11:22:14;;;;;;;;;;;;;;;29.25;29.11;97432.67;67814;1279;1016540;-64
2024/03/23 11:25:21;;;;;;;;;;;;;;;29.14;29.50;97427.63;67801;1279;1016397;-67
2024/03/23 11:28:26;;;;;;;;;;;;;;;29.00;28.68;97414.02;67802;1279;1016441;-66
2024/03/23 11:31:30;;;;;;;;;;;;;;;28.97;28.56;97406.91;67783;1279;1016388;-67
2024/03/23 11:34:37;;;;;;;;;;;;;;;29.20;28.82;97403.65;67802;1279;1016446;-62
2024/03/23 11:37:43;;;;;;;;;;;;;;;29.48;28.76;97391.77;67819;1279;1016438;-72
2024/03/23 11:40:48;;;;;;;;;;;;;;;29.73;27.97;97377.06;67794;1279;1016400;-70
2024/03/23 11:43:52;;;;;;;;;;;;;;;29.99;27.49;97372.66;67806;1279;1016162;-71
2024/03/23 11:46:56;;;;;;;;;;;;;;;30.16;27.01;97370.88;67774;1279;1017233;-72
2024/03/23 11:50:01;;;;;;;;;;;;;;;30.03;27.06;97371.95;67819;1279;1016783;-73
2024/03/23 11:53:06;;;;;;;;;;;;;;;30.08;26.52;97354.58;67740;1279;1017789;-72
2024/03/23 11:56:11;;;;;;;;;;;;;;;30.03;26.64;97342.05;67703;1280;1016316;-70
2024/03/23 11:59:15;;;;;;;;;;;;;;;29.68;26.70;97343.50;67667;1279;1015765;-70
2024/03/23 12:02:20;;;;;;;;;;;;;;;30.06;26.75;97334.52;67826;1279;1016370;-72
2024/03/23 12:05:24;;;;;;;;;;;;;;;30.18;26.44;97320.30;67770;1279;1016580;-70
2024/03/23 12:08:29;;;;;;;;;;;;;;;30.00;26.62;97315.59;67811;1279;1016407;-72
2024/03/23 12:11:35;;;;;;;;;;;;;;;30.12;26.65;97315.21;67821;1279;1017604;-72
2024/03/23 12:14:40;;;;;;;;;;;;;;;30.56;26.88;97298.92;67828;1279;1016520;-71
2024/03/23 12:17:44;;;;;;;;;;;;;;;30.75;26.06;97290.44;67786;1279;1016347;-72
2024/03/23 12:20:49;;;;;;;;;;;;;;;30.85;26.06;97284.29;67794;1279;1018768;-72
2024/03/23 12:23:53;;;;;;;;;;;;;;;30.80;25.91;97263.52;68017;1276;1016095;-72
2024/03/23 12:26:58;;;;;;;;;;;;;;;30.88;25.56;97258.09;67932;1276;1016503;-72
2024/03/23 12:30:04;;;;;;;;;;;;;;;30.90;25.71;97250.31;67973;1276;1016328;-72
2024/03/23 12:33:08;;;;;;;;;;;;;;;30.73;25.56;97242.16;67986;1276;1016466;-72
2024/03/23 12:36:11;;;;;;;;;;;;;;;30.72;25.17;97234.52;67947;1276;1016368;-72
2024/03/23 12:39:16;;;;;;;;;;;;;;;30.94;25.43;97225.27;67990;1276;1017208;-72
2024/03/23 12:42:21;;;;;;;;;;;;;;;30.95;25.33;97220.58;67996;1276;1016372;-72
2024/03/23 12:45:26;;;;;;;;;;;;;;;31.00;25.18;97206.95;67974;1276;1017356;-70
2024/03/23 12:48:32;;;;;;;;;;;;;;;31.13;25.33;97204.57;67966;1276;1016515;-72
2024/03/23 12:51:38;;;;;;;;;;;;;;;31.46;24.80;97198.20;67935;1276;1016298;-72
2024/03/23 12:54:41;;;;;;;;;;;;;;;31.62;24.80;97192.29;67915;1276;1016492;-72
2024/03/23 12:57:44;;;;;;;;;;;;;;;31.74;24.72;97183.46;67951;1276;1017610;-69
2024/03/23 13:00:49;;;;;;;;;;;;;;;31.57;24.56;97179.70;67929;1276;1016520;-65
2024/03/23 13:03:55;;;;;;;;;;;;;;;32.02;24.56;97169.41;68028;1276;1016433;-66
2024/03/23 13:07:00;;;;;;;;;;;;;;;32.09;23.20;97154.12;67962;1276;1016568;-66
2024/03/23 13:10:04;;;;;;;;;;;;;;;31.89;23.42;97142.05;68018;1276;1016197;-67
2024/03/23 13:13:09;;;;;;;;;;;;;;;31.65;23.51;97143.41;67981;1276;1016495;-66
2024/03/23 13:16:13;;;;;;;;;;;;;;;31.50;23.94;97128.92;67993;1276;1016438;-67
2024/03/23 13:19:16;;;;;;;;;;;;;;;31.58;23.88;97126.39;67988;1276;1016436;-63
2024/03/23 13:22:20;;;;;;;;;;;;;;;31.22;23.53;97120.45;68019;1276;1016268;-62
2024/03/23 13:25:25;;;;;;;;;;;;;;;31.41;23.65;97108.86;67847;1276;1016516;-62
2024/03/23 13:28:30;;;;;;;;;;;;;;;31.23;23.06;97101.11;67881;1276;1016478;-64
2024/03/23 13:31:35;;;;;;;;;;;;;;;30.84;23.08;97105.45;67876;1276;1016468;-63
2024/03/23 13:34:40;;;;;;;;;;;;;;;30.37;23.23;97099.11;67889;1276;1016465;-63
2024/03/23 13:37:44;;;;;;;;;;;;;;;30.25;23.95;97092.98;67917;1276;1016481;-63
2024/03/23 13:40:50;;;;;;;;;;;;;;;29.91;23.94;97083.70;67944;1276;1016534;-63
2024/03/23 13:43:55;;;;;;;;;;;;;;;29.63;24.13;97080.30;68030;1276;1016342;-66
2024/03/23 13:47:00;;;;;;;;;;;;;;;29.40;24.52;97078.52;67959;1276;1016366;-66
2024/03/23 13:50:07;;;;;;;;;;;;;;;29.09;24.46;97074.00;67972;1276;1017406;-64
2024/03/23 13:53:13;;;;;;;;;;;;;;;28.62;24.60;97070.11;67967;1276;1016190;-66
2024/03/23 13:56:18;;;;;;;;;;;;;;;28.30;24.86;97066.27;67928;1276;1016487;-62
2024/03/23 13:59:23;;;;;;;;;;;;;;;28.35;24.96;97060.79;67995;1276;1016599;-66
2024/03/23 14:02:26;;;;;;;;;;;;;;;28.19;24.99;97058.80;67984;1276;1016649;-61
2024/03/23 14:05:31;;;;;;;;;;;;;;;27.95;25.26;97058.54;67950;1276;1016452;-64
2024/03/23 14:08:38;;;;;;;;;;;;;;;27.96;25.60;97065.17;67954;1276;1016229;-64
2024/03/23 14:11:43;;;;;;;;;;;;;;;27.75;26.14;97068.20;67971;1276;1016433;-67
2024/03/23 14:14:49;;;;;;;;;;;;;;;27.37;26.02;97073.20;68022;1276;1015985;-62
2024/03/23 14:17:55;;;;;;;;;;;;;;;27.26;26.01;97077.97;68010;1276;1018832;-67
2024/03/23 14:21:00;;;;;;;;;;;;;;;27.02;26.61;97098.75;68017;1276;1016391;-67
2024/03/23 14:24:05;;;;;;;;;;;;;;;26.71;27.78;97127.98;68009;1276;1016263;-67
2024/03/23 14:27:09;;;;;;;;;;;;;;;26.30;29.60;97180.73;67978;1276;1018754;-67
2024/03/23 14:30:15;;;;;;;;;;;;;;;25.23;32.25;97279.88;68006;1276;1015995;-67
2024/03/23 14:33:19;;;;;;;;;;;;;;;23.58;39.57;97321.75;68011;1276;1016243;-67
2024/03/23 14:36:26;;;;;;;;;;;;;;;21.82;45.23;97326.20;67911;1276;1017225;-67
2024/03/23 14:39:30;;;;;;;;;;;;;;;20.69;51.51;97330.88;68012;1276;1016420;-62
2024/03/23 14:42:34;;;;;;;;;;;;;;;20.29;52.13;97343.27;67966;1276;1016906;-68
2024/03/23 14:45:38;;;;;;;;;;;;;;;20.32;52.56;97349.90;67993;1276;1016923;-62
2024/03/23 14:48:43;;;;;;;;;;;;;;;20.35;52.02;97346.05;67989;1276;1016733;-67
2024/03/23 14:51:49;;;;;;;;;;;;;;;20.20;52.77;97359.55;68014;1276;1016438;-67
2024/03/23 14:54:56;;;;;;;;;;;;;;;20.13;52.81;97369.88;67958;1276;1016039;-67
2024/03/23 14:58:01;;;;;;;;;;;;;;;20.26;52.31;97367.10;67946;1276;1016084;-67
2024/03/23 15:01:09;;;;;;;;;;;;;;;20.22;52.47;97376.64;67944;1276;1016069;-66
2024/03/23 15:04:13;;;;;;;;;;;;;;;20.04;53.04;97383.30;67991;1276;1016356;-61
2024/03/23 15:07:18;;;;;;;;;;;;;;;20.12;52.90;97393.01;68013;1276;1016391;-66
2024/03/23 15:10:22;;;;;;;;;;;;;;;19.87;53.50;97400.64;67964;1276;1016109;-67
2024/03/23 15:13:28;;;;;;;;;;;;;;;20.05;52.87;97401.21;68008;1276;1018437;-62
2024/03/23 15:16:34;;;;;;;;;;;;;;;20.27;52.00;97392.36;67980;1276;1016392;-68
2024/03/23 15:19:38;;;;;;;;;;;;;;;20.11;52.41;97399.50;68019;1276;1018061;-66
2024/03/23 15:22:42;;;;;;;;;;;;;;;20.44;51.01;97391.60;68000;1276;1016321;-67
2024/03/23 15:25:47;;;;;;;;;;;;;;;20.53;50.12;97375.27;67944;1276;1016383;-66
2024/03/23 15:29:10;;;;;;;;;;;;;;;20.49;49.32;97355.93;68003;1276;1016171;-67
2024/03/23 15:32:17;;;;;;;;;;;;;;;20.19;50.03;97346.84;67858;1276;1016424;-69
2024/03/23 15:35:23;;;;;;;;;;;;;;;20.25;50.13;97336.70;67957;1275;1019359;-69
2024/03/23 15:38:29;;;;;;;;;;;;;;;20.41;49.03;97299.32;67999;1276;1016414;-66